createdAt,value
2023-02-06T00:01:48.409Z,75.74
2023-02-06T00:04:17.559Z,75.88
2023-02-06T00:06:46.112Z,75.84
2023-02-06T00:09:14.946Z,75.82
2023-02-06T00:11:43.311Z,75.91
2023-02-06T00:14:11.783Z,75.98
2023-02-06T00:16:40.060Z,76.06
2023-02-06T00:19:08.781Z,76.01
2023-02-06T00:21:37.491Z,76.08
2023-02-06T00:24:07.413Z,76.20
2023-02-06T00:26:35.701Z,76.30
2023-02-06T00:29:04.217Z,76.60
2023-02-06T00:31:32.584Z,76.89
2023-02-06T00:34:00.855Z,77.26
2023-02-06T00:36:29.339Z,77.32
2023-02-06T00:38:57.690Z,77.42
2023-02-06T00:41:25.985Z,77.22
2023-02-06T00:43:54.372Z,77.13
2023-02-06T00:46:25.296Z,77.21
2023-02-06T00:48:53.494Z,77.15
2023-02-06T00:51:21.703Z,77.02
2023-02-06T00:53:51.239Z,76.89
2023-02-06T00:56:27.879Z,76.79
2023-02-06T00:58:56.049Z,76.86
2023-02-06T01:01:26.552Z,76.92
2023-02-06T01:03:56.310Z,77.10
2023-02-06T01:06:24.834Z,76.87
2023-02-06T01:08:53.366Z,76.79
2023-02-06T01:11:24.630Z,76.81
2023-02-06T01:13:52.814Z,76.84
2023-02-06T01:16:24.506Z,76.80
2023-02-06T01:19:00.360Z,76.97
2023-02-06T01:21:28.766Z,76.93
2023-02-06T01:23:59.671Z,76.93
2023-02-06T01:26:28.481Z,76.96
2023-02-06T01:28:57.890Z,77.00
2023-02-06T01:31:29.894Z,77.04
2023-02-06T01:34:00.691Z,76.94
2023-02-06T01:36:34.722Z,76.84
2023-02-06T01:39:03.154Z,76.80
2023-02-06T01:41:31.726Z,76.70
2023-02-06T01:44:27.556Z,76.63
2023-02-06T01:46:57.427Z,76.75
2023-02-06T01:49:37.700Z,76.86
2023-02-06T01:52:21.422Z,76.86
2023-02-06T01:55:07.325Z,77.10
2023-02-06T01:57:35.971Z,77.21
2023-02-06T02:00:08.685Z,77.25
2023-02-06T02:02:51.220Z,77.29
2023-02-06T02:05:20.145Z,77.35
2023-02-06T02:08:05.414Z,77.85
2023-02-06T02:10:36.446Z,77.90
2023-02-06T02:13:04.676Z,77.96
2023-02-06T02:15:41.724Z,78.22
2023-02-06T02:18:23.753Z,78.23
2023-02-06T02:21:15.457Z,78.30
2023-02-06T02:24:21.626Z,78.13
2023-02-06T02:27:14.886Z,77.93
2023-02-06T02:29:55.356Z,77.84
2023-02-06T02:32:44.373Z,77.89
2023-02-06T02:35:43.677Z,77.92
2023-02-06T02:38:36.914Z,77.81
2023-02-06T02:41:33.880Z,77.70
2023-02-06T02:44:21.620Z,77.81
2023-02-06T02:46:55.126Z,77.74
2023-02-06T02:49:38.056Z,77.58
2023-02-06T02:52:06.496Z,77.54
2023-02-06T02:54:34.790Z,77.56
2023-02-06T02:57:09.311Z,77.53
2023-02-06T02:59:48.728Z,77.43
2023-02-06T03:02:24.965Z,77.39
2023-02-06T03:05:14.876Z,77.38
2023-02-06T03:08:02.033Z,77.30
2023-02-06T03:10:47.945Z,77.45
2023-02-06T03:13:39.694Z,77.41
2023-02-06T03:16:24.332Z,77.46
2023-02-06T03:19:04.763Z,77.41
2023-02-06T03:21:35.795Z,77.23
2023-02-06T03:24:10.834Z,77.23
2023-02-06T03:26:49.046Z,77.16
2023-02-06T03:29:19.234Z,77.05
2023-02-06T03:32:00.914Z,77.08
2023-02-06T03:34:40.246Z,77.17
2023-02-06T03:37:09.940Z,77.14
2023-02-06T03:39:39.104Z,77.07
2023-02-06T03:42:14.716Z,77.45
2023-02-06T03:44:49.891Z,77.59
2023-02-06T03:47:20.828Z,77.83
2023-02-06T03:49:51.481Z,77.89
2023-02-06T03:52:30.541Z,77.89
2023-02-06T03:55:05.179Z,77.69
2023-02-06T03:57:36.256Z,77.70
2023-02-06T04:00:05.853Z,77.75
2023-02-06T04:02:42.853Z,77.77
2023-02-06T04:05:11.266Z,77.84
2023-02-06T04:07:39.582Z,77.86
2023-02-06T04:10:08.293Z,77.99
2023-02-06T04:12:36.867Z,77.74
2023-02-06T04:15:08.767Z,77.73
2023-02-06T04:17:53.516Z,77.99
2023-02-06T04:20:25.705Z,78.18
2023-02-06T04:22:54.058Z,78.31
2023-02-06T04:25:22.513Z,78.47
2023-02-06T04:27:51.325Z,78.71
2023-02-06T04:30:19.997Z,78.92
2023-02-06T04:32:48.190Z,78.94
2023-02-06T04:35:16.592Z,79.16
2023-02-06T04:37:44.857Z,79.11
2023-02-06T04:40:13.275Z,79.09
2023-02-06T04:42:41.704Z,79.15
2023-02-06T04:45:10.407Z,78.86
2023-02-06T04:47:40.232Z,78.98
2023-02-06T04:50:10.712Z,78.96
2023-02-06T04:52:39.065Z,78.82
2023-02-06T04:55:07.792Z,78.65
2023-02-06T04:57:36.079Z,78.60
2023-02-06T05:00:06.656Z,78.60
2023-02-06T05:02:42.733Z,78.39
2023-02-06T05:05:11.283Z,78.36
2023-02-06T05:07:39.702Z,78.06
2023-02-06T05:10:09.443Z,77.98
2023-02-06T05:12:37.895Z,77.99
2023-02-06T05:15:06.670Z,78.16
2023-02-06T05:17:35.283Z,78.12
2023-02-06T05:20:04.633Z,78.04
2023-02-06T05:22:33.152Z,78.11
2023-02-06T05:25:01.465Z,78.02
2023-02-06T05:27:29.821Z,77.82
2023-02-06T05:29:58.063Z,77.81
2023-02-06T05:32:26.451Z,77.71
2023-02-06T05:34:54.664Z,77.58
2023-02-06T05:37:23.003Z,77.59
2023-02-06T05:39:51.394Z,77.39
2023-02-06T05:42:19.607Z,77.28
2023-02-06T05:44:47.910Z,77.40
2023-02-06T05:47:16.372Z,77.45
2023-02-06T05:49:44.614Z,77.57
2023-02-06T05:52:15.119Z,77.72
2023-02-06T05:54:43.673Z,77.76
2023-02-06T05:57:11.991Z,77.80
2023-02-06T05:59:40.501Z,77.79
2023-02-06T06:02:09.470Z,77.69
2023-02-06T06:04:37.725Z,77.46
2023-02-06T06:07:06.223Z,77.40
2023-02-06T06:09:35.048Z,77.36
2023-02-06T06:12:03.484Z,77.37
2023-02-06T06:14:31.839Z,76.95
2023-02-06T06:17:00.415Z,76.79
2023-02-06T06:19:28.799Z,76.63
2023-02-06T06:21:58.322Z,76.26
2023-02-06T06:24:27.184Z,76.02
2023-02-06T06:26:55.716Z,75.76
2023-02-06T06:29:25.010Z,75.43
2023-02-06T06:31:53.757Z,74.89
2023-02-06T06:34:22.540Z,73.99
2023-02-06T06:36:50.976Z,74.00
2023-02-06T06:39:19.557Z,73.55
2023-02-06T06:41:47.917Z,72.74
2023-02-06T06:44:16.364Z,71.68
2023-02-06T06:46:45.098Z,70.72
2023-02-06T06:49:13.778Z,70.56
2023-02-06T06:51:41.953Z,70.67
2023-02-06T06:54:11.526Z,69.42
2023-02-06T06:56:42.185Z,68.99
2023-02-06T06:59:10.363Z,68.53
2023-02-06T07:01:38.644Z,68.62
2023-02-06T07:04:07.147Z,68.52
2023-02-06T07:06:35.507Z,67.63
2023-02-06T07:09:03.853Z,68.18
2023-02-06T07:11:32.091Z,67.65
2023-02-06T07:14:00.375Z,66.61
2023-02-06T07:16:29.672Z,66.28
2023-02-06T07:19:00.193Z,67.20
2023-02-06T07:21:28.637Z,66.82
2023-02-06T07:23:56.918Z,65.83
2023-02-06T07:26:25.224Z,65.36
2023-02-06T07:28:53.690Z,64.25
2023-02-06T07:31:22.201Z,62.23
2023-02-06T07:33:50.419Z,62.82
2023-02-06T07:36:19.420Z,62.44
2023-02-06T07:38:47.804Z,62.45
2023-02-06T07:41:18.123Z,64.34
2023-02-06T07:43:46.415Z,65.01
2023-02-06T07:46:14.770Z,62.09
2023-02-06T07:48:43.554Z,61.88
2023-02-06T07:51:11.853Z,62.38
2023-02-06T07:53:40.234Z,61.89
2023-02-06T07:56:16.036Z,61.56
2023-02-06T07:58:44.739Z,61.17
2023-02-06T08:01:13.479Z,62.61
2023-02-06T08:03:41.678Z,62.71
2023-02-06T08:06:12.378Z,61.93
2023-02-06T08:08:48.727Z,62.12
2023-02-06T08:11:19.567Z,60.02
2023-02-06T08:13:48.518Z,60.52
2023-02-06T08:16:30.971Z,60.18
2023-02-06T08:18:59.481Z,58.38
2023-02-06T08:21:27.948Z,56.23
2023-02-06T08:23:58.862Z,57.18
2023-02-06T08:26:29.342Z,57.13
2023-02-06T08:29:00.857Z,56.92
2023-02-06T08:31:35.131Z,55.73
2023-02-06T08:34:05.204Z,56.01
2023-02-06T08:36:35.724Z,56.51
2023-02-06T08:39:05.733Z,56.18
2023-02-06T08:41:39.639Z,56.11
2023-02-06T08:44:12.629Z,56.43
2023-02-06T08:46:41.356Z,55.66
2023-02-06T08:49:17.348Z,55.46
2023-02-06T08:51:46.472Z,54.43
2023-02-06T08:54:18.096Z,54.15
2023-02-06T08:56:47.327Z,53.77
2023-02-06T08:59:17.632Z,54.15
2023-02-06T09:01:46.892Z,53.96
2023-02-06T09:04:19.697Z,54.35
2023-02-06T09:06:49.365Z,53.63
2023-02-06T09:09:18.703Z,54.20
2023-02-06T09:11:47.775Z,53.35
2023-02-06T09:14:18.024Z,53.15
2023-02-06T09:16:46.583Z,54.30
2023-02-06T09:19:14.883Z,54.71
2023-02-06T09:21:43.255Z,55.09
2023-02-06T09:24:11.691Z,55.44
2023-02-06T09:26:58.633Z,53.86
2023-02-06T09:29:29.670Z,52.84
2023-02-06T09:31:58.486Z,51.66
2023-02-06T09:34:31.409Z,51.12
2023-02-06T09:37:03.635Z,51.56
2023-02-06T09:39:33.071Z,51.29
2023-02-06T09:42:15.450Z,50.72
2023-02-06T09:45:06.361Z,50.73
2023-02-06T09:47:38.005Z,50.61
2023-02-06T09:50:20.997Z,49.84
2023-02-06T09:53:24.971Z,49.48
2023-02-06T09:56:10.474Z,49.87
2023-02-06T09:58:41.803Z,50.23
2023-02-06T10:01:26.846Z,51.10
2023-02-06T10:04:06.010Z,50.50
2023-02-06T10:06:54.525Z,52.43
2023-02-06T10:09:31.245Z,52.80
2023-02-06T10:12:26.947Z,51.71
2023-02-06T10:15:05.095Z,51.01
2023-02-06T10:17:55.552Z,51.83
2023-02-06T10:20:46.863Z,51.03
2023-02-06T10:23:47.785Z,50.24
2023-02-06T10:26:18.418Z,52.10
2023-02-06T10:29:01.368Z,52.09
2023-02-06T10:31:50.332Z,51.92
2023-02-06T10:34:27.521Z,49.46
2023-02-06T10:36:55.720Z,49.84
2023-02-06T10:40:07.895Z,49.04
2023-02-06T10:42:38.907Z,49.83
2023-02-06T10:45:20.252Z,50.04
2023-02-06T10:48:04.187Z,49.50
2023-02-06T10:50:48.724Z,49.71
2023-02-06T10:53:34.099Z,47.72
2023-02-06T10:56:13.494Z,50.48
2023-02-06T10:58:51.774Z,51.43
2023-02-06T11:01:26.333Z,51.62
2023-02-06T11:04:11.083Z,50.97
2023-02-06T11:06:46.283Z,48.85
2023-02-06T11:09:15.930Z,48.88
2023-02-06T11:11:52.093Z,46.04
2023-02-06T11:14:26.041Z,46.68
2023-02-06T11:16:55.090Z,47.62
2023-02-06T11:19:30.391Z,46.87
2023-02-06T11:22:04.649Z,44.16
2023-02-06T11:24:34.084Z,46.71
2023-02-06T11:27:22.602Z,49.11
2023-02-06T11:29:52.309Z,46.93
2023-02-06T11:32:29.711Z,46.80
2023-02-06T11:35:01.759Z,46.71
2023-02-06T11:37:36.112Z,47.05
2023-02-06T11:40:19.924Z,45.70
2023-02-06T11:42:54.555Z,43.42
2023-02-06T11:45:23.064Z,44.23
2023-02-06T11:47:51.402Z,46.32
2023-02-06T11:50:34.703Z,44.55
2023-02-06T11:53:16.924Z,45.74
2023-02-06T11:55:46.859Z,45.62
2023-02-06T11:58:15.169Z,43.89
2023-02-06T12:00:52.576Z,45.61
2023-02-06T12:03:39.898Z,45.18
2023-02-06T12:06:23.655Z,43.83
2023-02-06T12:08:54.632Z,43.61
2023-02-06T12:11:35.712Z,44.54
2023-02-06T12:14:29.656Z,45.37
2023-02-06T12:17:02.065Z,46.02
2023-02-06T12:19:36.160Z,45.21
2023-02-06T12:22:16.075Z,45.26
2023-02-06T12:24:49.209Z,44.79
2023-02-06T12:27:22.864Z,45.43
2023-02-06T12:30:33.834Z,44.95
2023-02-06T12:33:14.575Z,44.28
2023-02-06T12:35:52.354Z,44.42
2023-02-06T12:38:39.749Z,44.82
2023-02-06T12:41:43.618Z,45.17
2023-02-06T12:44:34.028Z,45.33
2023-02-06T12:47:21.299Z,44.96
2023-02-06T12:50:14.700Z,44.76
2023-02-06T12:53:04.442Z,43.82
2023-02-06T12:55:42.658Z,44.01
2023-02-06T12:58:29.933Z,43.68
2023-02-06T13:01:29.245Z,44.07
2023-02-06T13:04:06.379Z,44.84
2023-02-06T13:06:44.320Z,45.13
2023-02-06T13:09:46.957Z,45.19
2023-02-06T13:12:25.102Z,45.94
2023-02-06T13:14:57.799Z,46.43
2023-02-06T13:17:32.257Z,46.60
2023-02-06T13:20:07.178Z,46.69
2023-02-06T13:22:51.200Z,46.27
2023-02-06T13:25:39.701Z,45.76
2023-02-06T13:28:24.858Z,45.58
2023-02-06T13:31:03.030Z,45.62
2023-02-06T13:34:00.455Z,45.26
2023-02-06T13:36:50.244Z,45.14
2023-02-06T13:39:29.079Z,45.12
2023-02-06T13:42:22.119Z,44.77
2023-02-06T13:44:51.827Z,44.32
2023-02-06T13:47:28.779Z,44.66
2023-02-06T13:50:07.444Z,45.05
2023-02-06T13:52:54.532Z,45.37
2023-02-06T13:55:47.614Z,45.57
2023-02-06T13:58:34.555Z,46.59
2023-02-06T14:01:08.816Z,46.44
2023-02-06T14:03:38.551Z,46.33
2023-02-06T14:06:32.059Z,46.59
2023-02-06T14:09:36.698Z,46.64
2023-02-06T14:12:34.572Z,46.54
2023-02-06T14:15:17.882Z,46.64
2023-02-06T14:18:20.175Z,46.85
2023-02-06T14:21:14.034Z,46.54
2023-02-06T14:23:57.655Z,46.51
2023-02-06T14:26:44.629Z,46.69
2023-02-06T14:29:31.090Z,46.32
2023-02-06T14:32:07.266Z,46.58
2023-02-06T14:35:16.710Z,46.72
2023-02-06T14:38:25.944Z,47.07
2023-02-06T14:41:03.271Z,47.43
2023-02-06T14:43:37.945Z,47.26
2023-02-06T14:46:13.566Z,47.04
2023-02-06T14:48:42.142Z,47.36
2023-02-06T14:51:43.982Z,47.42
2023-02-06T14:54:36.831Z,47.95
2023-02-06T14:57:17.970Z,48.12
2023-02-06T15:00:01.201Z,48.21
2023-02-06T15:02:35.602Z,48.68
2023-02-06T15:05:05.383Z,48.98
2023-02-06T15:07:36.573Z,49.19
2023-02-06T15:10:12.004Z,49.82
2023-02-06T15:12:41.057Z,50.46
2023-02-06T15:15:19.121Z,50.89
2023-02-06T15:18:06.652Z,51.23
2023-02-06T15:20:38.422Z,51.71
2023-02-06T15:23:25.468Z,52.03
2023-02-06T15:26:20.229Z,52.42
2023-02-06T15:28:48.893Z,52.72
2023-02-06T15:31:20.896Z,53.40
2023-02-06T15:33:52.546Z,53.94
2023-02-06T15:36:37.800Z,54.82
2023-02-06T15:39:09.663Z,55.28
2023-02-06T15:41:41.181Z,55.60
2023-02-06T15:44:23.422Z,56.14
2023-02-06T15:46:53.143Z,56.85
2023-02-06T15:49:44.390Z,57.30
2023-02-06T15:52:14.992Z,57.59
2023-02-06T15:54:45.186Z,57.92
2023-02-06T15:57:34.216Z,58.43
2023-02-06T16:00:04.904Z,58.69
2023-02-06T16:02:41.107Z,59.10
2023-02-06T16:05:23.990Z,59.43
2023-02-06T16:07:52.344Z,59.81
2023-02-06T16:10:22.774Z,60.09
2023-02-06T16:12:52.274Z,60.47
2023-02-06T16:15:33.062Z,60.84
2023-02-06T16:18:21.186Z,61.34
2023-02-06T16:20:49.692Z,62.07
2023-02-06T16:23:29.756Z,62.54
2023-02-06T16:26:22.475Z,62.34
2023-02-06T16:29:26.117Z,62.56
2023-02-06T16:32:00.288Z,62.87
2023-02-06T16:34:34.556Z,63.14
2023-02-06T16:37:10.990Z,63.54
2023-02-06T16:39:42.633Z,63.68
2023-02-06T16:42:23.186Z,63.82
2023-02-06T16:44:58.380Z,63.88
2023-02-06T16:47:27.052Z,64.26
2023-02-06T16:49:58.500Z,64.50
2023-02-06T16:52:30.526Z,64.53
2023-02-06T16:55:00.397Z,64.70
2023-02-06T16:57:35.256Z,64.84
2023-02-06T17:00:16.192Z,64.92
2023-02-06T17:02:45.241Z,65.18
2023-02-06T17:05:15.248Z,65.35
2023-02-06T17:07:52.036Z,65.95
2023-02-06T17:10:23.749Z,66.21
2023-02-06T17:12:52.759Z,66.74
2023-02-06T17:15:21.344Z,66.96
2023-02-06T17:17:49.541Z,67.12
2023-02-06T17:20:24.851Z,67.17
2023-02-06T17:22:56.982Z,67.40
2023-02-06T17:25:25.863Z,67.80
2023-02-06T17:27:54.924Z,68.19
2023-02-06T17:30:26.029Z,68.30
2023-02-06T17:32:54.599Z,68.57
2023-02-06T17:35:22.875Z,68.58
2023-02-06T17:37:51.918Z,68.96
2023-02-06T17:40:24.527Z,69.24
2023-02-06T17:42:54.068Z,69.45
2023-02-06T17:45:30.599Z,69.34
2023-02-06T17:47:58.953Z,69.87
2023-02-06T17:50:29.189Z,69.95
2023-02-06T17:52:59.123Z,70.38
2023-02-06T17:55:28.697Z,70.20
2023-02-06T17:57:56.943Z,70.34
2023-02-06T18:00:27.662Z,70.24
2023-02-06T18:02:58.362Z,70.46
2023-02-06T18:05:27.706Z,70.81
2023-02-06T18:07:56.028Z,70.49
2023-02-06T18:10:25.586Z,70.28
2023-02-06T18:12:54.016Z,70.38
2023-02-06T18:15:22.327Z,70.80
2023-02-06T18:17:50.727Z,70.72
2023-02-06T18:20:19.218Z,71.22
2023-02-06T18:22:47.478Z,71.52
2023-02-06T18:25:15.820Z,72.43
2023-02-06T18:27:46.124Z,72.27
2023-02-06T18:30:15.612Z,71.92
2023-02-06T18:32:44.117Z,72.04
2023-02-06T18:35:12.421Z,71.99
2023-02-06T18:37:40.790Z,71.85
2023-02-06T18:40:09.870Z,71.67
2023-02-06T18:42:54.226Z,71.65
2023-02-06T18:45:25.166Z,71.66
2023-02-06T18:47:53.590Z,72.21
2023-02-06T18:50:22.164Z,72.96
2023-02-06T18:52:51.053Z,73.28
2023-02-06T18:55:20.152Z,73.47
2023-02-06T18:57:48.625Z,73.89
2023-02-06T19:00:19.213Z,73.82
2023-02-06T19:02:48.343Z,73.99
2023-02-06T19:05:18.401Z,73.94
2023-02-06T19:07:53.787Z,74.22
2023-02-06T19:10:22.563Z,73.95
2023-02-06T19:12:50.799Z,74.30
2023-02-06T19:15:19.729Z,74.43
2023-02-06T19:17:49.635Z,74.90
2023-02-06T19:20:19.286Z,74.59
2023-02-06T19:22:47.687Z,74.88
2023-02-06T19:25:16.135Z,74.64
2023-02-06T19:27:44.584Z,74.73
2023-02-06T19:30:13.807Z,74.79
2023-02-06T19:32:42.392Z,75.17
2023-02-06T19:35:12.080Z,74.96
2023-02-06T19:37:40.614Z,74.78
2023-02-06T19:40:09.445Z,74.91
2023-02-06T19:42:38.778Z,74.89
2023-02-06T19:45:07.396Z,75.27
2023-02-06T19:47:37.161Z,75.52
2023-02-06T19:50:05.970Z,75.20
2023-02-06T19:52:36.468Z,75.29
2023-02-06T19:55:05.137Z,75.32
2023-02-06T19:57:33.439Z,75.11
2023-02-06T20:00:05.443Z,75.30
2023-02-06T20:02:33.723Z,75.59
2023-02-06T20:05:02.785Z,75.36
2023-02-06T20:07:31.843Z,75.59
2023-02-06T20:10:00.483Z,75.77
2023-02-06T20:12:29.249Z,75.98
2023-02-06T20:15:00.387Z,76.05
2023-02-06T20:17:29.281Z,76.59
2023-02-06T20:19:59.918Z,77.00
2023-02-06T20:22:30.156Z,77.03
2023-02-06T20:24:59.148Z,76.71
2023-02-06T20:27:27.735Z,76.51
2023-02-06T20:29:55.997Z,76.55
2023-02-06T20:32:24.466Z,76.71
2023-02-06T20:34:53.179Z,76.97
2023-02-06T20:37:21.738Z,77.22
2023-02-06T20:39:52.544Z,77.34
2023-02-06T20:42:22.410Z,77.11
2023-02-06T20:44:51.662Z,77.03
2023-02-06T20:47:19.886Z,77.11
2023-02-06T20:49:48.201Z,77.55
2023-02-06T20:52:16.610Z,77.75
2023-02-06T20:54:44.825Z,77.76
2023-02-06T20:57:13.022Z,78.13
2023-02-06T20:59:41.373Z,78.04
2023-02-06T21:02:11.453Z,77.89
2023-02-06T21:04:39.939Z,77.62
2023-02-06T21:07:08.752Z,77.83
2023-02-06T21:09:37.218Z,77.95
2023-02-06T21:12:06.093Z,77.88
2023-02-06T21:14:34.444Z,78.00
2023-02-06T21:17:02.673Z,77.89
2023-02-06T21:19:31.277Z,77.60
2023-02-06T21:22:00.888Z,77.96
2023-02-06T21:24:29.226Z,78.14
2023-02-06T21:26:57.583Z,78.50
2023-02-06T21:29:25.963Z,78.67
2023-02-06T21:32:11.195Z,78.31
2023-02-06T21:34:41.809Z,78.23
2023-02-06T21:37:10.144Z,78.31
2023-02-06T21:39:41.116Z,78.48
2023-02-06T21:42:11.597Z,78.56
2023-02-06T21:44:40.489Z,78.43
2023-02-06T21:47:11.268Z,78.57
2023-02-06T21:49:39.461Z,78.70
2023-02-06T21:52:07.787Z,78.75
2023-02-06T21:54:36.084Z,78.43
2023-02-06T21:57:04.937Z,78.40
2023-02-06T21:59:34.350Z,78.59
2023-02-06T22:02:02.647Z,78.80
2023-02-06T22:04:31.344Z,79.11
2023-02-06T22:06:59.839Z,78.98
2023-02-06T22:09:28.000Z,78.83
2023-02-06T22:11:56.866Z,79.06
2023-02-06T22:14:25.233Z,79.54
2023-02-06T22:16:53.652Z,79.63
2023-02-06T22:19:21.984Z,79.66
2023-02-06T22:21:50.252Z,79.75
2023-02-06T22:24:18.857Z,79.63
2023-02-06T22:26:47.137Z,79.74
2023-02-06T22:29:17.565Z,79.99
2023-02-06T22:31:46.255Z,79.83
2023-02-06T22:34:20.470Z,79.42
2023-02-06T22:36:51.177Z,79.18
2023-02-06T22:39:20.062Z,79.43
2023-02-06T22:41:49.376Z,79.39
2023-02-06T22:44:19.695Z,79.30
2023-02-06T22:46:52.857Z,79.32
2023-02-06T22:49:22.315Z,79.13
2023-02-06T22:51:51.078Z,79.05
2023-02-06T22:54:19.468Z,79.11
2023-02-06T22:56:47.895Z,78.95
2023-02-06T22:59:25.621Z,79.12
2023-02-06T23:01:58.704Z,79.13
2023-02-06T23:04:29.984Z,79.53
2023-02-06T23:06:58.370Z,79.48
2023-02-06T23:09:29.122Z,79.66
2023-02-06T23:11:58.527Z,79.76
2023-02-06T23:14:29.228Z,79.82
2023-02-06T23:16:59.432Z,80.11
2023-02-06T23:19:28.694Z,80.44
2023-02-06T23:21:56.965Z,80.41
2023-02-06T23:24:25.523Z,80.47
2023-02-06T23:26:54.607Z,80.58
2023-02-06T23:29:24.394Z,80.39
2023-02-06T23:31:53.090Z,80.33
2023-02-06T23:34:24.510Z,80.35
2023-02-06T23:36:53.298Z,80.57
2023-02-06T23:39:21.645Z,80.45
2023-02-06T23:41:49.941Z,80.26
2023-02-06T23:44:19.152Z,80.19
2023-02-06T23:46:47.992Z,80.30
2023-02-06T23:49:16.420Z,80.37
2023-02-06T23:51:44.817Z,80.24
2023-02-06T23:54:13.160Z,80.41
2023-02-06T23:56:41.625Z,80.36
2023-02-06T23:59:10.774Z,80.31
